createdAt,value
2023-04-15T00:01:59.396Z,6.95
2023-04-15T00:04:27.166Z,6.91
2023-04-15T00:06:54.738Z,6.88
2023-04-15T00:09:29.740Z,6.88
2023-04-15T00:12:03.725Z,6.92
2023-04-15T00:14:35.929Z,6.92
2023-04-15T00:17:07.142Z,6.90
2023-04-15T00:19:34.932Z,6.86
2023-04-15T00:22:08.030Z,6.79
2023-04-15T00:24:43.066Z,6.81
2023-04-15T00:27:15.595Z,6.79
2023-04-15T00:29:43.860Z,6.75
2023-04-15T00:32:15.691Z,6.74
2023-04-15T00:34:43.240Z,6.76
2023-04-15T00:37:14.413Z,6.78
2023-04-15T00:39:42.775Z,6.75
2023-04-15T00:42:14.145Z,6.74
2023-04-15T00:44:45.704Z,6.73
2023-04-15T01:00:45.751Z,7.00
2023-04-15T01:03:28.540Z,7.09
2023-04-15T01:06:00.919Z,7.08
2023-04-15T01:08:31.311Z,7.05
2023-04-15T01:31:52.459Z,6.83
2023-04-15T01:34:21.123Z,6.87
2023-04-15T01:36:48.064Z,6.86
2023-04-15T01:39:15.453Z,6.81
2023-04-15T01:41:43.580Z,6.75
2023-04-15T01:44:10.495Z,6.72
2023-04-15T01:46:40.211Z,6.72
2023-04-15T01:49:08.073Z,6.75
2023-04-15T01:51:35.037Z,6.76
2023-04-15T01:54:04.758Z,6.75
2023-04-15T01:56:32.888Z,6.71
2023-04-15T01:59:01.623Z,6.69
2023-04-15T02:01:29.283Z,6.68
2023-04-15T02:04:01.433Z,6.64
2023-04-15T02:06:31.180Z,6.55
2023-04-15T02:08:58.765Z,6.48
2023-04-15T02:11:27.177Z,6.43
2023-04-15T02:13:54.233Z,6.42
2023-04-15T02:16:21.382Z,6.37
2023-04-15T02:18:54.316Z,6.35
2023-04-15T02:21:22.132Z,6.36
2023-04-15T02:23:49.156Z,6.37
2023-04-15T02:26:16.438Z,6.40
2023-04-15T02:28:43.590Z,6.40
2023-04-15T02:31:10.421Z,6.40
2023-04-15T02:33:37.734Z,6.39
2023-04-15T02:36:06.374Z,6.36
2023-04-15T02:38:34.106Z,6.36
2023-04-15T02:41:02.237Z,6.33
2023-04-15T02:43:30.047Z,6.31
2023-04-15T02:45:57.908Z,6.33
2023-04-15T02:48:28.123Z,6.36
2023-04-15T02:51:11.196Z,6.38
2023-04-15T02:53:38.186Z,6.37
2023-04-15T02:56:07.910Z,6.36
2023-04-15T02:58:35.906Z,6.34
2023-04-15T03:01:03.029Z,6.33
2023-04-15T03:03:30.997Z,6.35
2023-04-15T03:05:58.295Z,6.38
2023-04-15T03:08:27.081Z,6.42
2023-04-15T03:11:00.445Z,6.41
2023-04-15T03:13:27.531Z,6.38
2023-04-15T03:15:56.576Z,6.37
2023-04-15T03:18:23.613Z,6.36
2023-04-15T03:20:50.591Z,6.33
2023-04-15T03:23:18.006Z,6.28
2023-04-15T03:25:45.456Z,6.25
2023-04-15T03:28:12.375Z,6.21
2023-04-15T03:30:39.951Z,6.19
2023-04-15T03:33:08.061Z,6.20
2023-04-15T03:35:35.716Z,6.22
2023-04-15T03:38:06.665Z,6.22
2023-04-15T03:40:34.142Z,6.24
2023-04-15T03:43:01.442Z,6.25
2023-04-15T03:45:28.400Z,6.23
2023-04-15T03:47:56.547Z,6.19
2023-04-15T03:50:28.569Z,6.16
2023-04-15T03:52:55.908Z,6.17
2023-04-15T03:55:22.690Z,6.18
2023-04-15T03:57:49.585Z,6.19
2023-04-15T04:00:16.847Z,6.20
2023-04-15T04:02:46.413Z,6.22
2023-04-15T04:05:13.610Z,6.24
2023-04-15T04:07:42.091Z,6.26
2023-04-15T04:10:09.507Z,6.25
2023-04-15T04:12:36.407Z,6.22
2023-04-15T04:15:07.510Z,6.21
2023-04-15T04:17:35.337Z,6.19
2023-04-15T04:20:02.227Z,6.19
2023-04-15T04:22:46.116Z,6.21
2023-04-15T04:25:12.953Z,6.24
2023-04-15T04:27:40.296Z,6.29
2023-04-15T04:30:08.531Z,6.33
2023-04-15T04:32:37.724Z,6.33
2023-04-15T04:35:07.896Z,6.32
2023-04-15T04:37:38.589Z,6.35
2023-04-15T04:40:06.228Z,6.37
2023-04-15T04:42:33.503Z,6.35
2023-04-15T04:45:02.566Z,6.31
2023-04-15T04:47:30.265Z,6.29
2023-04-15T04:49:58.100Z,6.26
2023-04-15T04:52:25.703Z,6.24
2023-04-15T04:54:52.893Z,6.22
2023-04-15T04:57:20.277Z,6.18
2023-04-15T04:59:47.190Z,6.16
2023-04-15T05:02:14.100Z,6.15
2023-04-15T05:04:41.425Z,6.13
2023-04-15T05:07:10.963Z,6.12
2023-04-15T05:09:38.257Z,6.14
2023-04-15T05:12:07.787Z,6.15
2023-04-15T05:14:39.364Z,6.18
2023-04-15T05:17:11.045Z,6.17
2023-04-15T05:19:39.286Z,6.16
2023-04-15T05:22:08.560Z,6.18
2023-04-15T05:24:35.566Z,6.26
2023-04-15T05:27:04.703Z,6.32
2023-04-15T05:29:32.194Z,6.38
2023-04-15T05:32:00.042Z,6.41
2023-04-15T05:34:27.162Z,6.42
2023-04-15T05:36:54.153Z,6.41
2023-04-15T05:39:21.547Z,6.44
2023-04-15T05:41:48.457Z,6.45
2023-04-15T05:44:16.985Z,6.40
2023-04-15T05:46:45.266Z,6.35
2023-04-15T05:49:12.649Z,6.32
2023-04-15T05:51:39.564Z,6.31
2023-04-15T05:54:11.232Z,6.32
2023-04-15T05:56:39.937Z,6.31
2023-04-15T05:59:08.190Z,6.30
2023-04-15T06:01:37.005Z,6.32
2023-04-15T06:04:05.318Z,6.32
2023-04-15T06:06:33.085Z,6.33
2023-04-15T06:09:00.468Z,6.34
2023-04-15T06:11:33.373Z,6.37
2023-04-15T06:14:01.494Z,6.41
2023-04-15T06:16:29.016Z,6.44
2023-04-15T06:18:56.084Z,6.48
2023-04-15T06:21:23.125Z,6.48
2023-04-15T06:23:50.496Z,6.46
2023-04-15T06:26:18.659Z,6.43
2023-04-15T06:28:45.884Z,6.41
2023-04-15T06:31:12.930Z,6.39
2023-04-15T06:33:40.527Z,6.37
2023-04-15T06:36:07.882Z,6.38
2023-04-15T06:38:37.809Z,6.39
2023-04-15T06:41:05.887Z,6.38
2023-04-15T06:43:32.801Z,6.38
2023-04-15T06:46:00.024Z,6.40
2023-04-15T06:48:29.245Z,6.40
2023-04-15T06:50:57.705Z,6.42
2023-04-15T06:53:30.461Z,6.41
2023-04-15T06:55:57.561Z,6.39
2023-04-15T06:58:24.863Z,6.43
2023-04-15T07:01:00.280Z,6.46
2023-04-15T07:03:32.614Z,6.47
2023-04-15T07:06:01.276Z,6.49
2023-04-15T07:08:34.028Z,6.50
2023-04-15T07:11:02.198Z,6.50
2023-04-15T07:13:30.930Z,6.53
2023-04-15T07:15:58.350Z,6.59
2023-04-15T07:18:27.190Z,6.64
2023-04-15T07:20:55.660Z,6.73
2023-04-15T07:23:24.797Z,6.80
2023-04-15T07:25:54.350Z,6.86
2023-04-15T07:28:21.450Z,6.93
2023-04-15T07:30:48.879Z,6.99
2023-04-15T07:33:20.160Z,7.04
2023-04-15T07:35:48.834Z,7.08
2023-04-15T07:38:16.266Z,7.08
2023-04-15T07:40:46.409Z,7.09
2023-04-15T07:43:15.262Z,7.09
2023-04-15T07:45:44.486Z,7.07
2023-04-15T07:48:17.821Z,7.08
2023-04-15T07:50:53.458Z,7.13
2023-04-15T07:53:23.607Z,7.17
2023-04-15T07:55:56.051Z,7.21
2023-04-15T07:58:25.150Z,7.26
2023-04-15T08:00:55.092Z,7.26
2023-04-15T08:03:23.332Z,7.29
2023-04-15T08:05:53.063Z,7.27
2023-04-15T08:08:28.272Z,7.27
2023-04-15T08:10:56.168Z,7.32
2023-04-15T08:13:23.635Z,7.37
2023-04-15T08:16:24.952Z,7.43
2023-04-15T08:18:55.296Z,7.49
2023-04-15T08:21:24.536Z,7.53
2023-04-15T08:23:52.631Z,7.54
2023-04-15T08:26:23.448Z,7.52
2023-04-15T08:28:55.060Z,7.50
2023-04-15T08:31:22.142Z,7.47
2023-04-15T08:33:52.883Z,7.49
2023-04-15T08:36:20.602Z,7.46
2023-04-15T08:38:50.636Z,7.44
2023-04-15T08:41:22.893Z,7.47
2023-04-15T08:43:58.925Z,7.55
2023-04-15T08:46:29.025Z,7.63
2023-04-15T08:48:57.662Z,7.69
2023-04-15T08:51:29.510Z,7.75
2023-04-15T08:53:56.892Z,7.79
2023-04-15T08:56:26.239Z,7.78
2023-04-15T08:58:53.027Z,7.75
2023-04-15T09:01:21.169Z,7.76
2023-04-15T09:03:48.813Z,7.78
2023-04-15T09:06:17.980Z,7.81
2023-04-15T09:08:45.200Z,7.85
2023-04-15T09:11:13.611Z,7.85
2023-04-15T09:13:41.535Z,7.86
2023-04-15T09:16:08.880Z,7.90
2023-04-15T09:18:37.808Z,7.96
2023-04-15T09:21:11.582Z,7.99
2023-04-15T09:23:39.931Z,8.02
2023-04-15T09:26:07.233Z,8.02
2023-04-15T09:28:36.750Z,7.98
2023-04-15T09:31:03.718Z,7.96
2023-04-15T09:33:31.111Z,7.98
2023-04-15T09:36:00.394Z,8.03
2023-04-15T09:38:27.709Z,8.06
2023-04-15T09:40:55.478Z,8.10
2023-04-15T09:43:42.241Z,8.16
2023-04-15T09:46:09.249Z,8.16
2023-04-15T09:48:36.990Z,8.14
2023-04-15T09:51:03.881Z,8.16
2023-04-15T09:53:36.231Z,8.17
2023-04-15T09:56:03.684Z,8.13
2023-04-15T09:58:33.002Z,8.07
2023-04-15T10:01:03.145Z,8.05
2023-04-15T10:03:33.738Z,8.03
2023-04-15T10:06:02.062Z,8.02
2023-04-15T10:08:32.466Z,8.01
2023-04-15T10:11:01.357Z,8.06
2023-04-15T10:13:35.915Z,8.12
2023-04-15T10:16:08.836Z,8.15
2023-04-15T10:18:38.618Z,8.16
2023-04-15T10:21:05.583Z,8.16
2023-04-15T10:23:32.466Z,8.13
2023-04-15T10:25:59.412Z,8.08
2023-04-15T10:28:27.164Z,8.07
2023-04-15T10:30:54.461Z,8.07
2023-04-15T10:33:23.076Z,8.12
2023-04-15T10:35:51.412Z,8.17
2023-04-15T10:38:35.475Z,8.24
2023-04-15T10:41:21.636Z,8.30
2023-04-15T10:43:55.812Z,8.34
2023-04-15T10:49:25.761Z,8.28
2023-04-15T10:51:57.137Z,8.28
2023-04-15T10:54:23.968Z,8.29
2023-04-15T10:57:14.416Z,8.30
2023-04-15T11:00:04.256Z,8.32
2023-04-15T11:02:46.966Z,8.34
2023-04-15T11:05:17.411Z,8.38
2023-04-15T11:07:46.291Z,8.43
2023-04-15T11:10:13.323Z,8.51
2023-04-15T11:12:40.655Z,8.55
2023-04-15T11:15:30.549Z,8.58
2023-04-15T11:17:58.087Z,8.57
2023-04-15T11:20:25.849Z,8.56
2023-04-15T11:23:08.323Z,8.58
2023-04-15T11:25:41.202Z,8.61
2023-04-15T11:28:08.244Z,8.63
2023-04-15T11:30:36.941Z,8.68
2023-04-15T11:33:05.565Z,8.76
2023-04-15T11:35:32.930Z,8.78
2023-04-15T11:38:10.098Z,8.81
2023-04-15T11:40:37.843Z,8.84
2023-04-15T11:43:20.322Z,8.86
2023-04-15T11:45:49.209Z,8.89
2023-04-15T11:48:16.550Z,8.89
2023-04-15T11:50:43.532Z,8.86
2023-04-15T11:53:11.634Z,8.84
2023-04-15T11:55:43.674Z,8.79
2023-04-15T11:58:16.636Z,8.76
2023-04-15T12:00:52.518Z,8.72
2023-04-15T12:03:26.156Z,8.66
2023-04-15T12:06:17.420Z,8.62
2023-04-15T12:08:58.672Z,8.59
2023-04-15T12:11:26.608Z,8.57
2023-04-15T12:13:56.446Z,8.57
2023-04-15T12:16:24.214Z,8.59
2023-04-15T12:18:52.239Z,8.61
2023-04-15T12:21:20.515Z,8.63
2023-04-15T12:23:54.682Z,8.63
2023-04-15T12:26:29.156Z,8.64
2023-04-15T12:29:09.627Z,8.64
2023-04-15T12:31:37.314Z,8.63
2023-04-15T12:34:07.488Z,8.65
2023-04-15T12:36:37.574Z,8.69
2023-04-15T12:39:05.010Z,8.70
2023-04-15T12:41:32.664Z,8.72
2023-04-15T12:43:59.853Z,8.71
2023-04-15T12:46:27.931Z,8.70
2023-04-15T12:48:54.957Z,8.72
2023-04-15T12:51:21.989Z,8.74
2023-04-15T12:53:49.215Z,8.78
2023-04-15T12:56:19.621Z,8.80
2023-04-15T12:58:46.942Z,8.80
2023-04-15T13:01:14.137Z,8.79
2023-04-15T13:03:41.459Z,8.78
2023-04-15T13:06:08.946Z,8.79
2023-04-15T13:08:38.565Z,8.80
2023-04-15T13:11:07.521Z,8.80
2023-04-15T13:13:34.350Z,8.77
2023-04-15T13:16:01.927Z,8.74
2023-04-15T13:18:30.881Z,8.70
2023-04-15T13:21:00.001Z,8.68
2023-04-15T13:23:27.273Z,8.68
2023-04-15T13:25:54.236Z,8.69
2023-04-15T13:28:22.699Z,8.67
2023-04-15T13:30:50.001Z,8.64
2023-04-15T13:33:18.133Z,8.63
2023-04-15T13:38:20.208Z,8.68
2023-04-15T13:40:50.498Z,8.70
2023-04-15T13:43:18.399Z,8.73
2023-04-15T13:45:46.156Z,8.73
2023-04-15T13:48:13.525Z,8.69
2023-04-15T13:50:44.716Z,8.67
2023-04-15T13:53:12.584Z,8.64
2023-04-15T13:55:41.290Z,8.58
2023-04-15T13:58:08.886Z,8.52
2023-04-15T14:00:38.026Z,8.48
2023-04-15T14:03:05.275Z,8.47
2023-04-15T14:05:33.673Z,8.49
2023-04-15T14:08:01.102Z,8.49
2023-04-15T14:10:28.113Z,8.49
2023-04-15T14:12:54.994Z,8.46
2023-04-15T14:15:22.046Z,8.45
2023-04-15T14:17:49.075Z,8.44
2023-04-15T14:20:17.158Z,8.43
2023-04-15T14:22:44.454Z,8.43
2023-04-15T14:25:17.301Z,8.46
2023-04-15T14:27:50.504Z,8.47
2023-04-15T14:30:17.488Z,8.48
2023-04-15T14:32:45.360Z,8.48
2023-04-15T14:35:12.315Z,8.48
2023-04-15T14:37:39.749Z,8.46
2023-04-15T14:40:07.551Z,8.45
2023-04-15T14:42:35.650Z,8.45
2023-04-15T14:45:03.127Z,8.45
2023-04-15T14:47:33.372Z,8.45
2023-04-15T14:50:01.798Z,8.45
2023-04-15T14:52:32.552Z,8.46
2023-04-15T14:55:01.291Z,8.47
2023-04-15T14:57:30.587Z,8.46
2023-04-15T14:59:58.672Z,8.46
2023-04-15T15:02:37.288Z,8.50
2023-04-15T15:05:06.473Z,8.54
2023-04-15T15:07:33.741Z,8.58
2023-04-15T15:10:10.249Z,8.58
2023-04-15T15:12:40.313Z,8.59
2023-04-15T15:15:19.576Z,8.60
2023-04-15T15:18:25.612Z,8.56
2023-04-15T15:21:05.070Z,8.53
2023-04-15T15:23:33.335Z,8.51
2023-04-15T15:26:04.988Z,8.50
2023-04-15T15:28:33.999Z,8.50
2023-04-15T15:31:00.979Z,8.55
2023-04-15T15:33:30.139Z,8.55
2023-04-15T15:35:57.750Z,8.57
2023-04-15T15:38:24.903Z,8.57
2023-04-15T15:40:52.929Z,8.55
2023-04-15T15:43:23.009Z,8.53
2023-04-15T15:45:52.506Z,8.52
2023-04-15T15:48:19.918Z,8.52
2023-04-15T15:50:46.858Z,8.53
2023-04-15T15:53:20.169Z,8.51
2023-04-15T15:55:51.945Z,8.50
2023-04-15T15:58:20.859Z,8.48
2023-04-15T16:00:48.203Z,8.48
2023-04-15T16:03:15.423Z,8.49
2023-04-15T16:05:43.413Z,8.49
2023-04-15T16:08:10.560Z,8.47
2023-04-15T16:10:37.784Z,8.46
2023-04-15T16:13:05.337Z,8.45
2023-04-15T16:15:32.721Z,8.45
2023-04-15T16:18:03.809Z,8.45
2023-04-15T16:20:31.456Z,8.48
2023-04-15T16:22:58.405Z,8.53
2023-04-15T16:25:28.070Z,8.58
2023-04-15T16:28:05.509Z,8.61
2023-04-15T16:30:41.008Z,8.61
2023-04-15T16:33:09.429Z,8.58
2023-04-15T16:35:36.442Z,8.55
2023-04-15T16:38:04.014Z,8.52
2023-04-15T16:40:31.078Z,8.50
2023-04-15T16:42:58.228Z,8.49
2023-04-15T16:45:26.469Z,8.49
2023-04-15T16:47:53.869Z,8.47
2023-04-15T16:50:21.380Z,8.47
2023-04-15T16:52:48.525Z,8.47
2023-04-15T16:55:15.635Z,8.47
2023-04-15T16:58:01.595Z,8.45
2023-04-15T17:00:32.337Z,8.43
2023-04-15T17:03:06.377Z,8.42
2023-04-15T17:05:33.865Z,8.43
2023-04-15T17:08:02.545Z,8.44
2023-04-15T17:10:31.188Z,8.47
2023-04-15T17:12:58.814Z,8.50
2023-04-15T17:15:26.020Z,8.52
2023-04-15T17:17:53.228Z,8.53
2023-04-15T17:20:20.300Z,8.54
2023-04-15T17:22:47.920Z,8.55
2023-04-15T17:25:15.750Z,8.54
2023-04-15T17:27:43.251Z,8.52
2023-04-15T17:30:10.396Z,8.52
2023-04-15T17:32:38.967Z,8.51
2023-04-15T17:35:09.778Z,8.51
2023-04-15T17:37:39.391Z,8.52
2023-04-15T17:40:08.610Z,8.53
2023-04-15T17:42:40.845Z,8.57
2023-04-15T17:45:08.735Z,8.60
2023-04-15T17:47:35.886Z,8.61
2023-04-15T17:50:03.089Z,8.61
2023-04-15T17:52:30.377Z,8.59
2023-04-15T17:54:57.551Z,8.58
2023-04-15T17:57:25.146Z,8.58
2023-04-15T17:59:52.282Z,8.57
2023-04-15T18:02:19.468Z,8.58
2023-04-15T18:04:47.121Z,8.57
2023-04-15T18:07:16.207Z,8.59
2023-04-15T18:09:44.996Z,8.60
2023-04-15T18:12:12.254Z,8.63
2023-04-15T18:14:40.507Z,8.64
2023-04-15T18:17:07.658Z,8.60
2023-04-15T18:19:35.366Z,8.54
2023-04-15T18:22:03.759Z,8.49
2023-04-15T18:24:31.470Z,8.46
2023-04-15T18:26:59.132Z,8.45
2023-04-15T18:29:26.526Z,8.42
2023-04-15T18:31:54.162Z,8.38
2023-04-15T18:34:21.960Z,8.37
2023-04-15T18:36:52.820Z,8.35
2023-04-15T18:39:20.374Z,8.34
2023-04-15T18:41:47.557Z,8.30
2023-04-15T18:44:14.549Z,8.28
2023-04-15T18:46:42.196Z,8.26
2023-04-15T18:49:10.934Z,8.25
2023-04-15T18:51:39.407Z,8.25
2023-04-15T18:54:06.675Z,8.24
2023-04-15T18:56:35.868Z,8.24
2023-04-15T18:59:25.415Z,8.24
2023-04-15T19:01:51.128Z,8.23
2023-04-15T19:04:18.110Z,8.21
2023-04-15T19:06:46.760Z,8.15
2023-04-15T19:09:14.583Z,8.11
2023-04-15T19:11:41.517Z,8.08
2023-04-15T19:14:09.536Z,8.05
2023-04-15T19:16:36.726Z,8.03
2023-04-15T19:19:03.698Z,8.03
2023-04-15T19:21:35.478Z,8.04
2023-04-15T19:24:02.365Z,8.04
2023-04-15T19:26:30.973Z,8.04
2023-04-15T19:28:58.431Z,8.03
2023-04-15T19:31:25.962Z,8.02
2023-04-15T19:33:52.959Z,7.99
2023-04-15T19:36:19.735Z,7.94
2023-04-15T19:38:46.637Z,7.92
2023-04-15T19:41:15.088Z,7.88
2023-04-15T19:43:42.143Z,7.87
2023-04-15T19:46:09.514Z,7.84
2023-04-15T19:48:37.442Z,7.83
2023-04-15T19:51:04.640Z,7.84
2023-04-15T19:53:31.954Z,7.84
2023-04-15T19:56:00.481Z,7.84
2023-04-15T19:58:32.014Z,7.85
2023-04-15T20:01:00.763Z,7.86
2023-04-15T20:03:27.662Z,7.84
2023-04-15T20:05:54.792Z,7.82
2023-04-15T20:08:22.978Z,7.79
2023-04-15T20:10:49.853Z,7.78
2023-04-15T20:13:17.598Z,7.77
2023-04-15T20:15:44.594Z,7.74
2023-04-15T20:18:11.553Z,7.71
2023-04-15T20:20:38.845Z,7.69
2023-04-15T20:23:05.904Z,7.67
2023-04-15T20:25:32.897Z,7.65
2023-04-15T20:28:01.093Z,7.63
2023-04-15T20:30:29.377Z,7.60
2023-04-15T20:32:58.062Z,7.58
2023-04-15T20:35:28.754Z,7.59
2023-04-15T20:37:56.437Z,7.61
2023-04-15T20:40:23.410Z,7.61
2023-04-15T20:42:50.510Z,7.62
2023-04-15T20:45:17.416Z,7.62
2023-04-15T20:47:44.266Z,7.64
2023-04-15T20:50:16.461Z,7.64
2023-04-15T20:52:44.112Z,7.64
2023-04-15T20:55:11.449Z,7.63
2023-04-15T20:57:39.860Z,7.63
2023-04-15T21:00:10.299Z,7.63
2023-04-15T21:02:38.032Z,7.63
2023-04-15T21:05:05.446Z,7.64
2023-04-15T21:07:32.414Z,7.64
2023-04-15T21:09:59.415Z,7.64
2023-04-15T21:12:26.305Z,7.63
2023-04-15T21:14:53.208Z,7.60
2023-04-15T21:17:20.133Z,7.58
2023-04-15T21:19:47.135Z,7.57
2023-04-15T21:22:14.911Z,7.58
2023-04-15T21:24:43.396Z,7.60
2023-04-15T21:27:12.887Z,7.63
2023-04-15T21:29:41.540Z,7.62
2023-04-15T21:32:08.417Z,7.59
2023-04-15T21:34:35.720Z,7.57
2023-04-15T21:37:04.060Z,7.56
2023-04-15T21:39:31.062Z,7.52
2023-04-15T21:41:58.900Z,7.48
2023-04-15T21:44:26.335Z,7.45
2023-04-15T21:46:53.416Z,7.46
2023-04-15T21:49:20.248Z,7.48
2023-04-15T21:51:47.986Z,7.51
2023-04-15T21:54:14.997Z,7.52
2023-04-15T21:56:42.595Z,7.52
2023-04-15T21:59:10.083Z,7.52
2023-04-15T22:01:38.083Z,7.51
2023-04-15T22:04:07.021Z,7.50
2023-04-15T22:06:35.008Z,7.46
2023-04-15T22:09:01.854Z,7.42
2023-04-15T22:11:31.771Z,7.39
2023-04-15T22:13:58.790Z,7.39
2023-04-15T22:16:25.997Z,7.37
2023-04-15T22:18:54.454Z,7.34
2023-04-15T22:21:23.000Z,7.31
2023-04-15T22:23:50.518Z,7.29
2023-04-15T22:26:17.397Z,7.26
2023-04-15T22:28:44.760Z,7.23
2023-04-15T22:31:13.139Z,7.21
2023-04-15T22:33:40.147Z,7.21
2023-04-15T22:36:07.347Z,7.20
2023-04-15T22:38:34.308Z,7.18
2023-04-15T22:41:01.306Z,7.15
2023-04-15T22:43:28.347Z,7.14
2023-04-15T22:45:56.022Z,7.13
2023-04-15T22:48:25.750Z,7.13
2023-04-15T22:50:52.822Z,7.12
2023-04-15T22:53:20.033Z,7.12
2023-04-15T22:55:47.416Z,7.12
2023-04-15T22:58:15.301Z,7.10
2023-04-15T23:00:42.194Z,7.08
2023-04-15T23:03:09.498Z,7.03
2023-04-15T23:05:39.449Z,7.01
2023-04-15T23:08:09.574Z,6.99
2023-04-15T23:10:40.351Z,6.97
2023-04-15T23:13:07.408Z,6.97
2023-04-15T23:15:34.479Z,7.00
2023-04-15T23:18:02.206Z,7.02
2023-04-15T23:20:29.316Z,7.02
2023-04-15T23:22:57.128Z,7.01
2023-04-15T23:25:24.058Z,7.01
2023-04-15T23:27:51.019Z,7.01
2023-04-15T23:30:17.862Z,7.01
2023-04-15T23:32:45.074Z,7.01
2023-04-15T23:35:12.641Z,7.00
2023-04-15T23:37:39.464Z,7.00
2023-04-15T23:40:07.099Z,7.03
2023-04-15T23:42:34.121Z,7.04
2023-04-15T23:45:01.061Z,7.01
2023-04-15T23:47:29.802Z,6.98
2023-04-15T23:49:56.749Z,6.94
2023-04-15T23:52:23.828Z,6.90
2023-04-15T23:54:52.070Z,6.84
2023-04-15T23:57:18.993Z,6.81
2023-04-15T23:59:45.882Z,6.79
